Terminal Aerodrome Forecast
Issued by NWS

Home | Current Version | Previous Version | Text Only | Print | Product List | Glossary Off
Versions: 1 2 3 4 5 6 7 8 9 10 11 12 13 14 15 16 17

000
FTUS43 KMPX 260803 AAA
TAFRNH
TAF AMD
KRNH 260803Z 2608/2706 00000KT 1 1/2SM BR SCT005
      TEMPO 2608/2612 1/2SM FG VV005
     FM261300 03003KT P6SM FEW015
     FM261800 35005KT P6SM SKC
     FM270000 VRB02KT P6SM SKC=

USA.gov is the U.S. government's official web portal to all federal, state and local government web resources and services.